Aikawa, Japan

1:45 PM JST on September 18, 2014 (GMT +0900)
Niigata | Change Station
CLOSE
Current Station
Airport
Location: Niigata Airport,
Elevation: 13 ft
Nearby Weather Stations

Elev 13 ft 37.96 °N, 139.11 °E | Updated 45 minutes ago

Partly Cloudy
Partly Cloudy
72 °F
Feels Like 72 °F
N
15
Wind Variable Wind from WNW

Today
High -- | Low -- °F
--% Chance of Precip.
Yesterday
High -- | Low -- °F
Precip. -- in
5:30 AM 5:51 PM
Waning Crescent, 30% visible
Pressure 29.89 in
Visibility 6.2 miles
Clouds Few 5000 ft
Dew Point 45 °F
Humidity 38%
Rainfall 0.00 in
Snow Depth Not available.
UV 7 out of 12
Pollen Not available.
Air Quality Not available.
Flu Activity Not available.
METAR RJSN 180400Z 30013KT 9999 FEW050 22/07 Q1012

More Conditions Fewer Conditions

Pressure 29.89 in
Visibility 6.2 miles
Clouds Few 5000 ft
Dew Point 45 °F
Humidity 38%
Rainfall 0.00 in
Snow Depth Not available.
UV 7 out of 12
Pollen Not available.
Air Quality Not available.
Flu Activity Not available.
METAR RJSN 180400Z 30013KT 9999 FEW050 22/07 Q1012

More Conditions Fewer Conditions

10-Day Weather Forecast

Almanac

Astronomy

Sep. 18, 2014 Rise Set
Actual Time 5:30 AM JST 5:51 PM JST
Civil Twilight 5:04 AM JST 6:17 PM JST
Nautical Twilight 4:33 AM JST 6:48 PM JST
Astronomical Twilight 4:01 AM JST 7:19 PM JST
Moon No Moon Rise 2:12 PM JST
Length of Visible Light 13h 13m
Length of Day
12h 20m
Tomorrow will be 2m 25s shorter.
Waning Crescent, 30% of the Moon is Illuminated
Today
Waning Crescent
Sep 24
New
Oct 1
First Quarter
Oct 8
Full
Oct 15
Last Quarter

Yesterday's Extremes

Country Highs Country Lows

Community

WunderPhotos

Upload Photos

1,754,295 photos uploaded!

Nearby

Snow Depth

Not available.

Earthquake Activity

City Distance Mag. Time & Date
No recent earthquake activity has been reported nearby.
Minimum magnitude displayed is 2.5.

Coastal Water Temperatures

Place Temperature
No Stations Reporting

Nearby Weather Stations